SDC weather

Williamson Sodus Airport
Williamson/Sodus, New York, United States

Public forecast

Using degrees Fahrenheit for public forecast. Weather courtesy of forecast.io.

METAR (pilot weather report)

Closest report is Greater Rochester International Airport, 25.1 nm (46.5 km) WSW. Retrieved 2019/04/21 14:54 UTC (50 minutes ago):

KROC 211454Z 23003KT 10SM BKN019 OVC026 11/07 A3001 RMK AO2 SLP169 T01110067 51029

TAF (pilot weather forecast)

Forecast is more than 6 hours old.

Closest forecast is Greater Rochester International Airport, 25.1 nm (46.5 km) WSW. Retrieved 2019/04/21 06:24 UTC (9 hours ago):

TAF KROC 210521Z 2106/2206 VRB04KT 4SM -DZ BR OVC004 FM210900 23004KT 2SM BR OVC003 FM211300 24006KT P6SM OVC007 FM211700 33007KT P6SM BKN015 FM212000 03008KT P6SM BKN025 FM220000 VRB04KT P6SM BKN025